No se requiere un especial cuidado respecto a la situación meteorológica.   -   No hay avisos

Informes METAR

 

LEZL - Sevilla, Spain
Distancia de la estación: ENE 8km
Actualización: 22/07/2018 18:00
Despejado
Despejado
 Viento de SO
Viento: SO 13 km/h
Temperatura: 34°C
Rocío: 10°C
Humedad: 23%
Barómetro: 1011 hPa
Resumen: Despejado
Visibilidad: mayor de 10 km
2018/07/22 16:00 LEZL 221600Z 22007KT 170V260 CAVOK 34/10 Q1011 NOSIG
LEMO - Morón, Spain
Distancia de la estación: SE 43km
Actualización: 22/07/2018 18:00
Despejado
Despejado
 Viento de O
Viento: O 19 km/h
Temperatura: 32°C
Rocío: 15°C
Humedad: 36%
Barómetro: 1012 hPa
Resumen: Despejado
Visibilidad: mayor de 10 km
2018/07/22 16:00 LEMO 221600Z 26010KT 210V320 CAVOK 32/15 Q1012 NOSIG
LEJR - Jeréz, Spain
Distancia de la estación: S 71km
Actualización: 22/07/2018 18:00
Despejado
Despejado
 Viento de OSO
Viento: OSO 15 km/h
Temperatura: 32°C
Rocío: 12°C
Humedad: 29%
Barómetro: 1012 hPa
Resumen: Despejado
Visibilidad: mayor de 10 km
2018/07/22 16:00 LEJR 221600Z 24008KT 200V280 CAVOK 32/12 Q1012
 
LERT - Rota, Spain
Distancia de la estación: SSO 89km
Actualización: 22/07/2018 18:00
Despejado
Despejado
 Viento de O
Viento: O 17 km/h
Temperatura: 24°C
Rocío: 18°C
Humedad: 69%
Barómetro: 1013 hPa
Resumen: Despejado
Visibilidad: mayor de 10 km
2018/07/22 16:00 LERT 221600Z 26009KT 240V300 CAVOK 24/18 Q1013 NOSIG
LEMG - Málaga, Spain
Distancia de la estación: ESE 157km
Actualización: 22/07/2018 18:00
Despejado
Despejado
 Viento de ESE
Viento: ESE 15 km/h
Temperatura: 26°C
Rocío: 20°C
Humedad: 70%
Barómetro: 1013 hPa
Resumen: Despejado
Visibilidad: mayor de 10 km
2018/07/22 16:00 LEMG 221600Z 12008KT 100V160 CAVOK 26/20 Q1013 NOSIG
LEBA - Córdoba, Spain
Distancia de la estación: ENE 115km
Actualización: 22/07/2018 18:00
Despejado
Despejado
 Viento de O
Viento: O 15 km/h
Temperatura: 36°C
Rocío: 13°C
Humedad: 25%
Barómetro: 1011 hPa
Resumen: Despejado
Visibilidad: mayor de 10 km
2018/07/22 16:00 LEBA 221600Z 27008KT 230V300 CAVOK 36/13 Q1011
 
LEGR - Granada, Spain
Distancia de la estación: E 198km
Actualización: 22/07/2018 18:00
Despejado
Despejado
 Viento de O
Viento: O 17 km/h
Temperatura: 36°C
Rocío: 3°C
Humedad: 13%
Barómetro: 1014 hPa
Resumen: Despejado
Visibilidad: mayor de 10 km
2018/07/22 16:00 LEGR 221600Z 27009KT 230V320 CAVOK 36/03 Q1014
LEAM - Almería, Spain
Distancia de la estación: E 326km
Actualización: 22/07/2018 18:00
Despejado
Despejado
 Viento de SO
Viento: SO 19 km/h
Temperatura: 27°C
índice de calor: 29°C
Rocío: 22°C
Humedad: 74%
Barómetro: 1012 hPa
Resumen: Despejado
Visibilidad: mayor de 10 km
2018/07/22 16:00 LEAM 221600Z 23010KT CAVOK 27/22 Q1012
LEMD - Madrid/Barajas, Spain
Distancia de la estación: NNE 402km
Actualización: 22/07/2018 18:00
Poco nuboso
Poco nuboso
 Viento de OSO
Viento: OSO 9 km/h
Temperatura: 32°C
Rocío: 9°C
Humedad: 24%
Barómetro: 1014 hPa
Nubes: Poco nuboso
Visibilidad: 10 km
Detalles de las nubes: Poco nuboso 2438 m
2018/07/22 16:00 LEMD 221600Z 24005KT 180V310 9999 FEW080 32/09 Q1014 NOSIG
 
LEVD - Valladolid, Spain
Distancia de la estación: N 492km
Actualización: 22/07/2018 18:00
Despejado
Despejado
 Viento de ESE
Viento: ESE 11 km/h
Temperatura: 26°C
Rocío: 7°C
Humedad: 30%
Barómetro: 1017 hPa
Resumen: Despejado
Visibilidad: mayor de 10 km
2018/07/22 16:00 LEVD 221600Z 11006KT 050V170 CAVOK 26/07 Q1017
LEBL - Barcelona, Spain
Distancia de la estación: NE 816km
Actualización: 22/07/2018 18:00
Poco nuboso
Poco nuboso
 Viento de SSO
Viento: SSO 19 km/h
Temperatura: 25°C
Rocío: 19°C
Humedad: 69%
Barómetro: 1013 hPa
Nubes: Poco nuboso
Visibilidad: 10 km
Detalles de las nubes: Poco nuboso 610 m
2018/07/22 16:00 LEBL 221600Z 20010KT 170V230 9999 FEW020 25/19 Q1013 NOSIG
LEVC - Valencia, Spain
Distancia de la estación: ENE 535km
Actualización: 22/07/2018 18:00
Poco nuboso
Poco nuboso
 Viento de SSE
Viento: SSE 13 km/h
Temperatura: 28°C
índice de calor: 28°C
Rocío: 16°C
Humedad: 48%
Barómetro: 1014 hPa
Nubes: Poco nuboso
Visibilidad: 10 km
Detalles de las nubes: Poco nuboso 1219 m
2018/07/22 16:00 LEVC 221600Z 15007KT 100V180 9999 FEW040 28/16 Q1014 NOSIG